Terminal Aerodrome Forecast
Issued by NWS

Home | Current Version | Previous Version | Graphics & Text | Print | Product List | Glossary On
Versions: 1 2 3 4 5 6 7 8 9 10 11 12 13 14 15 16
000
FTUS43 KTOP 201700
TAFFOE
TAF
KFOE 201727Z 2018/2118 01011KT 6SM -DZ OVC008
     FM202100 01011KT 6SM -DZ OVC011
     FM210900 36004KT P6SM SCT015=

USA.gov is the U.S. government's official web portal to all federal, state and local government web resources and services.